Logo AVAMET
Benvolgut visitant, si us plau, ingressa Recuperar contrasenya

Inforatge Borriana Santa Bàrbera

Dades diàries. Acumulats / Últims 30 dies disponibles

Data Temperatura (°C) Humitat rel. (%) Pressió rel. (hPa) Vent (km/h) Precipitació
Mínima Mitjana Màxima Amplitud
tèrmica
Mínima Mitjana Màxima Mínima Mitjana Màxima Predom. Mitjana Ràfega
màxima
Total
(mm)
Índex-n
Mínima Mitjana Màxima Mínima Mitjana Màxima n
0 a 1
P0 max
mm 5'
Dades mensuals acumulades fins l'últim dia disponible
01/2020 1,4 5,7 12,0 9,7 10,8 14,5 20,3 18,9 38 82 98 1.016 1.027 1.035   8,1 80,5 75,2
Dades anuals acumulades fins l'últim dia disponible
2020 1,4 5,7 12,0 9,7 10,8 14,5 20,3 18,9 38 82 98 1.016 1.027 1.035   8,1 80,5 75,2
Últims 30 dies disponibles
28-01-2020 12,0     15,1     19,4 7,4 57 73 86 1.020 1.021 1.023 SSW 9,5 35,4 0,0
27-01-2020 4,9     10,1     15,0 10,1 54 75 89 1.020 1.023 1.026 W 6,3 38,6 0,0
26-01-2020 7,7     10,9     15,3 7,6 75 91 96 1.020 1.022 1.026 W 3,7 17,7 10,0 0,42 0,40
25-01-2020 8,8     11,4     14,3 5,5 84 91 95 1.019 1.021 1.023 NNE 6,9 25,7 0,0
24-01-2020 6,9     10,7     14,9 8,0 68 88 95 1.022 1.024 1.025 WNW 4,7 16,1 0,0
23-01-2020 6,6     10,8     14,0 7,4 72 82 90 1.020 1.023 1.025 W 5,3 17,7 0,0
22-01-2020 9,3     12,2     15,2 5,9 76 85 91 1.018 1.021 1.022 NNE 13,0 38,6 0,4
21-01-2020 7,5     11,1     14,0 6,5 90 94 98 1.016 1.019 1.024 NNE 24,3 62,8 24,6 0,76 2,20
20-01-2020 4,4     6,4     10,9 6,5 51 91 98 1.022 1.024 1.025 NNW 33,8 80,5 24,8 0,44 1,40
19-01-2020 6,1     8,9     10,8 4,7 50 84 97 1.017 1.020 1.024 NNW 17,9 70,8 15,4 0,54 0,60
18-01-2020 6,3     11,1     16,3 10,0 59 70 87 1.020 1.028 1.034 W 6,6 30,6 0,0
17-01-2020 4,3     12,0     20,3 16,0 38 65 94 1.027 1.029 1.033 W 8,5 40,2 0,0
16-01-2020 5,4     9,9     17,3 11,9 57 81 93 1.028 1.029 1.031 W 5,0 16,1 0,0
15-01-2020 2,8     7,8     13,4 10,6 57 81 92 1.024 1.026 1.029 W 5,0 14,5 0,0
14-01-2020 2,6     7,3     13,2 10,6 54 79 92 1.022 1.024 1.025 W 5,0 12,9 0,0
13-01-2020 1,4     7,0     12,2 10,8 50 76 92 1.023 1.027 1.032 W 4,7 14,5 0,0
12-01-2020 3,5     7,9     12,8 9,3 66 79 94 1.030 1.032 1.033 SO 6,5 17,7 0,0
11-01-2020 5,0     9,5     15,3 10,3 42 69 88 1.030 1.032 1.034 W 6,0 17,7 0,0
10-01-2020 6,6     10,7     15,1 8,5 46 73 94 1.025 1.027 1.031 W 10,0 49,9 0,0
09-01-2020 5,8     9,5     14,2 8,4 68 82 91 1.026 1.028 1.031 W 5,6 19,3 0,0
08-01-2020 4,8     7,3     12,6 7,8 85 93 96 1.029 1.031 1.034 ONO 5,3 17,7 0,0
07-01-2020 4,8     8,8     14,1 9,3 70 87 95 1.031 1.032 1.034 W 4,8 16,1 0,0
06-01-2020 5,4     8,9     14,6 9,2 70 85 95 1.030 1.031 1.032 W 5,6 14,5 0,0
05-01-2020 4,8     9,3     15,1 10,3 60 76 92 1.028 1.031 1.033 W 5,6 17,7 0,0
04-01-2020 4,4     9,2     15,7 11,3 56 82 95 1.033 1.034 1.035 W 5,5 16,1 0,0
03-01-2020 4,9     8,7     13,8 8,9 75 89 95 1.032 1.033 1.035 W 4,3 14,5 0,0
02-01-2020 7,1     10,7     13,6 6,5 73 84 92 1.032 1.033 1.035 W 3,7 12,9 0,0
01-01-2020 6,1     9,7     12,1 6,0 91 91 92 1.034 1.034 1.034 W 5,0 16,1 0,0
31-12-2019 6,4     10,3     12,2 5,8 79 81 83 1.036 1.036 1.036 O 4,4 12,9 0,0
30-12-2019 9,5     13,1     13,4 3,9 70 72 73 1.036 1.036 1.036 O 6,6 14,5 0,0
Últims 13 mesos disponibles
12/2019 3,8 9,1 15,8 13,0 12,2 17,1 25,4 21,6 50 77 94 1.002 1.020 1.036 W 7,6 69,2 105,2
11/2019 5,3 10,4 17,6 14,8 14,9 19,7 27,6 22,3 43 61 85 998 1.011 1.019 W 8,4 64,4 4,0
10/2019 9,8 15,0 19,3 19,3 16,0 23,8 27,8 18,0 54 77 94 1.008 1.018 1.024 W 5,3 45,1 21,2
09/2019 14,7 19,1 21,8 23,0 21,1 26,6 30,7 16,0 55 78 95 1.012 1.020 1.027 SSO 7,4 61,1 65,6
08/2019 18,1 21,2 24,7 25,4 24,7 29,1 31,5 13,4 60 80 93 1.013 1.018 1.022 SSE 6,0 63,0 18,8
07/2019 19,2 21,0 22,8 25,6 27,6 29,5 32,7 13,5 55 75 87 1.008 1.016 1.023 S 5,9 55,6 19,2
06/2019 10,8 16,6 20,4 21,6 21,3 25,5 33,3 22,5 54 73 87 1.013 1.018 1.024 S 7,3 45,0 0,0
05/2019 8,3 13,2 15,9 17,4 16,3 21,5 28,6 20,3 56 75 88 1.006 1.017 1.026 SSO 6,9 56,3 13,8
04/2019 5,8 10,4 14,2 14,5 15,2 18,7 24,8 19,0 51 72 90 1.001 1.015 1.027 SSO 11,1 70,9 35,4
03/2019 5,7 8,0 10,8 13,1 13,1 17,8 24,4 18,7 53 69 87 1.013 1.024 1.032 SSO 7,6 50,0 15,0
02/2019 0,7 5,7 10,4 10,6 13,2 16,1 20,5 19,8 29 73 88 994 1.026 1.036 SO 7,2 75,9 0,4
01/2019 2,2 5,0 7,9 10,1 11,8 15,9 22,2 20,0 45 64 83 1.001 1.020 1.032 OSO 7,5 77,8 2,2
12/2018 5,1 7,7 10,6 11,8 10,2 16,6 21,2 16,1 57 79 92 1.009 1.026 1.032 OSO 5,2 59,6 12,8
Tots els anys disponibles
2019 0,7 12,8 24,7 17,3 11,8 21,7 33,3 32,6 29 73 95 994 1.019 1.036 S 7,4 77,8 300,8
Temperatura (°C)
Humitat relativa (%)
Velocitat del vent i ràfega màxima (km/h)
Direcció del vent (°)
Pressió (hPa)
Precipitació (mm)
Nota sobre les dades: s'avisa a l'usuari de la provisionalitat i no oficialitat d'aquestes dades
Logo AVAMET blanc
Web allotjada a Sollutia
Llicència de Creative CommonsLa web d'AVAMET i els seus continguts estan subjectes a una llicència de
Reconeixement - No Comercial - Compartir igual
Últimes estacions: Xixona - Els Ameradors (Soci), Agres - El Tossal (Soci), Xàbia - Bevenguts (MeteoXàbia), Llíria (Aj. Soci/Inforatge), Orihuela - Lo Capitán, Cox & Guardamar del Segura - horta (Meteorihuela), l'Alcúdia - Carriona & el Real de Gandia (Inforatge), Benicàssim - les Vil·les (Soci),  l'Alfàs del Pi - l'Albir (Soci), - - -